sensor_id;sensor_type;location;lat;lon;timestamp;temperature;humidity
42339;DHT22;27993;45.392;10.918;2023-02-24T00:00:31;8.70;99.90
42339;DHT22;27993;45.392;10.918;2023-02-24T00:03:02;8.60;99.90
42339;DHT22;27993;45.392;10.918;2023-02-24T00:05:36;8.60;99.90
42339;DHT22;27993;45.392;10.918;2023-02-24T00:08:09;8.70;99.90
42339;DHT22;27993;45.392;10.918;2023-02-24T00:10:39;8.70;99.90
42339;DHT22;27993;45.392;10.918;2023-02-24T00:13:11;8.70;99.90
42339;DHT22;27993;45.392;10.918;2023-02-24T00:15:41;8.50;99.90
42339;DHT22;27993;45.392;10.918;2023-02-24T00:18:12;8.40;99.90
42339;DHT22;27993;45.392;10.918;2023-02-24T00:20:42;8.40;99.90
42339;DHT22;27993;45.392;10.918;2023-02-24T00:23:13;8.40;99.90
42339;DHT22;27993;45.392;10.918;2023-02-24T00:25:47;8.30;99.90
42339;DHT22;27993;45.392;10.918;2023-02-24T00:28:18;8.20;99.90
42339;DHT22;27993;45.392;10.918;2023-02-24T00:30:48;7.90;99.90
42339;DHT22;27993;45.392;10.918;2023-02-24T00:33:19;8.00;99.90
42339;DHT22;27993;45.392;10.918;2023-02-24T00:35:52;7.90;99.90
42339;DHT22;27993;45.392;10.918;2023-02-24T00:38:24;7.80;99.90
42339;DHT22;27993;45.392;10.918;2023-02-24T00:40:55;7.30;99.90
42339;DHT22;27993;45.392;10.918;2023-02-24T00:43:25;7.20;99.90
42339;DHT22;27993;45.392;10.918;2023-02-24T00:45:56;7.40;99.90
42339;DHT22;27993;45.392;10.918;2023-02-24T00:48:31;7.50;99.90
42339;DHT22;27993;45.392;10.918;2023-02-24T00:51:08;7.60;99.90
42339;DHT22;27993;45.392;10.918;2023-02-24T00:53:39;7.40;99.90
42339;DHT22;27993;45.392;10.918;2023-02-24T00:56:10;7.30;99.90
42339;DHT22;27993;45.392;10.918;2023-02-24T00:58:42;7.60;99.90
42339;DHT22;27993;45.392;10.918;2023-02-24T01:01:16;7.80;99.90
42339;DHT22;27993;45.392;10.918;2023-02-24T01:03:48;7.90;99.90
42339;DHT22;27993;45.392;10.918;2023-02-24T01:06:20;7.80;99.90
42339;DHT22;27993;45.392;10.918;2023-02-24T01:08:52;7.90;99.90
42339;DHT22;27993;45.392;10.918;2023-02-24T01:11:26;7.50;99.90
42339;DHT22;27993;45.392;10.918;2023-02-24T01:14:18;7.30;99.90
42339;DHT22;27993;45.392;10.918;2023-02-24T01:16:49;7.30;99.90
42339;DHT22;27993;45.392;10.918;2023-02-24T01:19:23;7.30;99.90
42339;DHT22;27993;45.392;10.918;2023-02-24T01:21:54;7.30;99.90
42339;DHT22;27993;45.392;10.918;2023-02-24T01:24:24;7.50;99.90
42339;DHT22;27993;45.392;10.918;2023-02-24T01:26:55;7.70;99.90
42339;DHT22;27993;45.392;10.918;2023-02-24T01:29:26;7.70;99.90
42339;DHT22;27993;45.392;10.918;2023-02-24T01:31:57;7.80;99.90
42339;DHT22;27993;45.392;10.918;2023-02-24T01:34:27;7.80;99.90
42339;DHT22;27993;45.392;10.918;2023-02-24T01:36:58;7.80;99.90
42339;DHT22;27993;45.392;10.918;2023-02-24T01:39:28;7.80;99.90
42339;DHT22;27993;45.392;10.918;2023-02-24T01:41:59;7.80;99.90
42339;DHT22;27993;45.392;10.918;2023-02-24T01:47:02;7.90;99.90
42339;DHT22;27993;45.392;10.918;2023-02-24T01:49:35;7.90;99.90
42339;DHT22;27993;45.392;10.918;2023-02-24T01:54:47;7.90;99.90
42339;DHT22;27993;45.392;10.918;2023-02-24T01:57:21;7.90;99.90
42339;DHT22;27993;45.392;10.918;2023-02-24T01:59:53;7.90;99.90
42339;DHT22;27993;45.392;10.918;2023-02-24T02:02:27;7.90;99.90
42339;DHT22;27993;45.392;10.918;2023-02-24T02:05:03;7.80;99.90
42339;DHT22;27993;45.392;10.918;2023-02-24T02:07:35;7.80;99.90
42339;DHT22;27993;45.392;10.918;2023-02-24T02:10:09;7.90;99.90
42339;DHT22;27993;45.392;10.918;2023-02-24T02:12:42;7.90;99.90
42339;DHT22;27993;45.392;10.918;2023-02-24T02:15:15;7.90;99.90
42339;DHT22;27993;45.392;10.918;2023-02-24T02:17:58;7.90;99.90
42339;DHT22;27993;45.392;10.918;2023-02-24T02:27:00;7.90;99.90
42339;DHT22;27993;45.392;10.918;2023-02-24T02:38:24;8.10;99.90
42339;DHT22;27993;45.392;10.918;2023-02-24T02:41:20;8.20;99.90
42339;DHT22;27993;45.392;10.918;2023-02-24T02:44:10;8.20;99.90
42339;DHT22;27993;45.392;10.918;2023-02-24T02:46:48;8.20;99.90
42339;DHT22;27993;45.392;10.918;2023-02-24T02:49:31;8.20;99.90
42339;DHT22;27993;45.392;10.918;2023-02-24T02:52:09;8.30;99.90
42339;DHT22;27993;45.392;10.918;2023-02-24T02:54:48;8.20;99.90
42339;DHT22;27993;45.392;10.918;2023-02-24T02:57:23;8.30;99.90
42339;DHT22;27993;45.392;10.918;2023-02-24T03:00:15;8.30;99.90
42339;DHT22;27993;45.392;10.918;2023-02-24T03:02:54;8.30;99.90
42339;DHT22;27993;45.392;10.918;2023-02-24T03:05:33;8.30;99.90
42339;DHT22;27993;45.392;10.918;2023-02-24T03:08:07;8.20;99.90
42339;DHT22;27993;45.392;10.918;2023-02-24T03:10:42;8.20;99.90
42339;DHT22;27993;45.392;10.918;2023-02-24T03:13:15;8.10;99.90
42339;DHT22;27993;45.392;10.918;2023-02-24T03:15:50;8.10;99.90
42339;DHT22;27993;45.392;10.918;2023-02-24T03:18:27;8.10;99.90
42339;DHT22;27993;45.392;10.918;2023-02-24T03:21:06;8.10;99.90
42339;DHT22;27993;45.392;10.918;2023-02-24T03:23:42;8.10;99.90
42339;DHT22;27993;45.392;10.918;2023-02-24T03:26:22;8.00;99.90
42339;DHT22;27993;45.392;10.918;2023-02-24T03:29:14;7.90;99.90
42339;DHT22;27993;45.392;10.918;2023-02-24T03:32:01;7.90;99.90
42339;DHT22;27993;45.392;10.918;2023-02-24T03:37:08;7.90;99.90
42339;DHT22;27993;45.392;10.918;2023-02-24T03:39:39;7.90;99.90
42339;DHT22;27993;45.392;10.918;2023-02-24T03:42:12;7.90;99.90
42339;DHT22;27993;45.392;10.918;2023-02-24T03:44:47;7.90;99.90
42339;DHT22;27993;45.392;10.918;2023-02-24T03:47:18;7.80;99.90
42339;DHT22;27993;45.392;10.918;2023-02-24T03:49:49;7.30;99.90
42339;DHT22;27993;45.392;10.918;2023-02-24T03:52:42;7.20;99.90
42339;DHT22;27993;45.392;10.918;2023-02-24T03:58:22;7.40;99.90
42339;DHT22;27993;45.392;10.918;2023-02-24T04:04:02;7.30;99.90
42339;DHT22;27993;45.392;10.918;2023-02-24T04:15:04;6.40;99.90
42339;DHT22;27993;45.392;10.918;2023-02-24T04:17:43;6.70;99.90
42339;DHT22;27993;45.392;10.918;2023-02-24T04:20:15;6.80;99.90
42339;DHT22;27993;45.392;10.918;2023-02-24T04:22:53;7.10;99.90
42339;DHT22;27993;45.392;10.918;2023-02-24T04:25:27;7.20;99.90
42339;DHT22;27993;45.392;10.918;2023-02-24T04:27:58;7.30;99.90
42339;DHT22;27993;45.392;10.918;2023-02-24T04:30:33;7.40;99.90
42339;DHT22;27993;45.392;10.918;2023-02-24T04:33:04;7.40;99.90
42339;DHT22;27993;45.392;10.918;2023-02-24T04:35:35;7.40;99.90
42339;DHT22;27993;45.392;10.918;2023-02-24T04:38:07;7.50;99.90
42339;DHT22;27993;45.392;10.918;2023-02-24T04:40:37;7.50;99.90
42339;DHT22;27993;45.392;10.918;2023-02-24T04:43:10;7.50;99.90
42339;DHT22;27993;45.392;10.918;2023-02-24T04:45:42;7.50;99.90
42339;DHT22;27993;45.392;10.918;2023-02-24T04:48:13;7.60;99.90
42339;DHT22;27993;45.392;10.918;2023-02-24T04:50:44;7.50;99.90
42339;DHT22;27993;45.392;10.918;2023-02-24T04:53:16;7.50;99.90
42339;DHT22;27993;45.392;10.918;2023-02-24T04:55:47;7.60;99.90
42339;DHT22;27993;45.392;10.918;2023-02-24T04:58:20;7.40;99.90
42339;DHT22;27993;45.392;10.918;2023-02-24T05:00:51;7.40;99.90
42339;DHT22;27993;45.392;10.918;2023-02-24T05:03:24;7.40;99.90
42339;DHT22;27993;45.392;10.918;2023-02-24T05:05:59;7.30;99.90
42339;DHT22;27993;45.392;10.918;2023-02-24T05:08:30;7.40;99.90
42339;DHT22;27993;45.392;10.918;2023-02-24T05:11:00;7.30;99.90
42339;DHT22;27993;45.392;10.918;2023-02-24T05:13:33;7.30;99.90
42339;DHT22;27993;45.392;10.918;2023-02-24T05:16:09;7.30;99.90
42339;DHT22;27993;45.392;10.918;2023-02-24T05:18:40;7.30;99.90
42339;DHT22;27993;45.392;10.918;2023-02-24T05:21:14;7.40;99.90
42339;DHT22;27993;45.392;10.918;2023-02-24T05:24:04;7.40;99.90
42339;DHT22;27993;45.392;10.918;2023-02-24T05:26:39;7.40;99.90
42339;DHT22;27993;45.392;10.918;2023-02-24T05:29:11;7.40;99.90
42339;DHT22;27993;45.392;10.918;2023-02-24T05:31:41;7.40;99.90
42339;DHT22;27993;45.392;10.918;2023-02-24T05:34:12;7.40;99.90
42339;DHT22;27993;45.392;10.918;2023-02-24T05:36:46;7.50;99.90
42339;DHT22;27993;45.392;10.918;2023-02-24T05:39:18;7.50;99.90
42339;DHT22;27993;45.392;10.918;2023-02-24T05:41:49;7.50;99.90
42339;DHT22;27993;45.392;10.918;2023-02-24T05:44:21;7.60;99.90
42339;DHT22;27993;45.392;10.918;2023-02-24T05:46:55;7.60;99.90
42339;DHT22;27993;45.392;10.918;2023-02-24T05:49:31;7.60;99.90
42339;DHT22;27993;45.392;10.918;2023-02-24T05:52:06;7.70;99.90
42339;DHT22;27993;45.392;10.918;2023-02-24T05:54:40;7.70;99.90
42339;DHT22;27993;45.392;10.918;2023-02-24T05:57:13;7.60;99.90
42339;DHT22;27993;45.392;10.918;2023-02-24T05:59:49;7.40;99.90
42339;DHT22;27993;45.392;10.918;2023-02-24T06:02:20;7.60;99.90
42339;DHT22;27993;45.392;10.918;2023-02-24T06:04:56;7.70;99.90
42339;DHT22;27993;45.392;10.918;2023-02-24T06:07:30;7.80;99.90
42339;DHT22;27993;45.392;10.918;2023-02-24T06:10:04;7.90;99.90
42339;DHT22;27993;45.392;10.918;2023-02-24T06:12:39;8.00;99.90
42339;DHT22;27993;45.392;10.918;2023-02-24T06:15:10;8.10;99.90
42339;DHT22;27993;45.392;10.918;2023-02-24T06:17:40;8.10;99.90
42339;DHT22;27993;45.392;10.918;2023-02-24T06:20:11;8.10;99.90
42339;DHT22;27993;45.392;10.918;2023-02-24T06:22:45;8.10;99.90
42339;DHT22;27993;45.392;10.918;2023-02-24T06:25:16;8.20;99.90
42339;DHT22;27993;45.392;10.918;2023-02-24T06:27:49;8.20;99.90
42339;DHT22;27993;45.392;10.918;2023-02-24T06:30:23;8.20;99.90
42339;DHT22;27993;45.392;10.918;2023-02-24T06:32:54;8.10;99.90
42339;DHT22;27993;45.392;10.918;2023-02-24T06:35:25;8.10;99.90
42339;DHT22;27993;45.392;10.918;2023-02-24T06:37:57;8.10;99.90
42339;DHT22;27993;45.392;10.918;2023-02-24T06:40:27;8.20;99.90
42339;DHT22;27993;45.392;10.918;2023-02-24T06:42:58;8.20;99.90
42339;DHT22;27993;45.392;10.918;2023-02-24T06:45:28;8.20;99.90
42339;DHT22;27993;45.392;10.918;2023-02-24T06:48:00;8.30;99.90
42339;DHT22;27993;45.392;10.918;2023-02-24T06:50:32;8.30;99.90
42339;DHT22;27993;45.392;10.918;2023-02-24T06:53:03;8.20;99.90
42339;DHT22;27993;45.392;10.918;2023-02-24T06:55:33;8.20;99.90
42339;DHT22;27993;45.392;10.918;2023-02-24T06:58:04;8.30;99.90
42339;DHT22;27993;45.392;10.918;2023-02-24T07:00:35;8.30;99.90
42339;DHT22;27993;45.392;10.918;2023-02-24T07:03:13;8.20;99.90
42339;DHT22;27993;45.392;10.918;2023-02-24T07:05:47;8.20;99.90
42339;DHT22;27993;45.392;10.918;2023-02-24T07:08:24;8.20;99.90
42339;DHT22;27993;45.392;10.918;2023-02-24T07:10:57;8.20;99.90
42339;DHT22;27993;45.392;10.918;2023-02-24T07:13:29;8.20;99.90
42339;DHT22;27993;45.392;10.918;2023-02-24T07:16:00;8.30;99.90
42339;DHT22;27993;45.392;10.918;2023-02-24T07:18:37;8.20;99.90
42339;DHT22;27993;45.392;10.918;2023-02-24T07:21:10;8.20;99.90
42339;DHT22;27993;45.392;10.918;2023-02-24T07:23:44;8.20;99.90
42339;DHT22;27993;45.392;10.918;2023-02-24T07:26:19;8.10;99.90
42339;DHT22;27993;45.392;10.918;2023-02-24T07:28:53;8.20;99.90
42339;DHT22;27993;45.392;10.918;2023-02-24T07:31:24;8.20;99.90
42339;DHT22;27993;45.392;10.918;2023-02-24T07:33:55;8.20;99.90
42339;DHT22;27993;45.392;10.918;2023-02-24T07:36:27;8.10;99.90
42339;DHT22;27993;45.392;10.918;2023-02-24T07:39:08;8.20;99.90
42339;DHT22;27993;45.392;10.918;2023-02-24T07:41:38;8.20;99.90
42339;DHT22;27993;45.392;10.918;2023-02-24T07:44:18;8.20;99.90
42339;DHT22;27993;45.392;10.918;2023-02-24T07:46:49;8.20;99.90
42339;DHT22;27993;45.392;10.918;2023-02-24T07:49:21;8.30;99.90
42339;DHT22;27993;45.392;10.918;2023-02-24T07:51:55;8.30;99.90
42339;DHT22;27993;45.392;10.918;2023-02-24T07:54:27;8.30;99.90
42339;DHT22;27993;45.392;10.918;2023-02-24T07:56:59;8.20;99.90
42339;DHT22;27993;45.392;10.918;2023-02-24T07:59:33;8.10;99.90
42339;DHT22;27993;45.392;10.918;2023-02-24T08:02:04;8.10;99.90
42339;DHT22;27993;45.392;10.918;2023-02-24T08:04:36;8.20;99.90
42339;DHT22;27993;45.392;10.918;2023-02-24T08:07:10;8.30;99.90
42339;DHT22;27993;45.392;10.918;2023-02-24T08:09:43;8.30;99.90
42339;DHT22;27993;45.392;10.918;2023-02-24T08:12:21;8.30;99.90
42339;DHT22;27993;45.392;10.918;2023-02-24T08:14:52;8.40;99.90
42339;DHT22;27993;45.392;10.918;2023-02-24T08:17:24;8.40;99.90
42339;DHT22;27993;45.392;10.918;2023-02-24T08:19:55;8.50;99.90
42339;DHT22;27993;45.392;10.918;2023-02-24T08:22:44;8.60;99.90
42339;DHT22;27993;45.392;10.918;2023-02-24T08:25:26;8.70;99.90
42339;DHT22;27993;45.392;10.918;2023-02-24T08:28:06;8.70;99.90
42339;DHT22;27993;45.392;10.918;2023-02-24T08:30:42;8.70;99.90
42339;DHT22;27993;45.392;10.918;2023-02-24T08:33:20;8.70;99.90
42339;DHT22;27993;45.392;10.918;2023-02-24T08:35:52;8.80;99.90
42339;DHT22;27993;45.392;10.918;2023-02-24T08:38:34;8.80;99.90
42339;DHT22;27993;45.392;10.918;2023-02-24T08:41:15;8.80;99.90
42339;DHT22;27993;45.392;10.918;2023-02-24T08:43:47;9.00;99.90
42339;DHT22;27993;45.392;10.918;2023-02-24T08:46:21;9.10;99.90
42339;DHT22;27993;45.392;10.918;2023-02-24T08:48:57;9.20;99.90
42339;DHT22;27993;45.392;10.918;2023-02-24T08:51:36;9.30;99.90
42339;DHT22;27993;45.392;10.918;2023-02-24T08:54:12;9.30;99.90
42339;DHT22;27993;45.392;10.918;2023-02-24T08:56:47;9.50;99.90
42339;DHT22;27993;45.392;10.918;2023-02-24T08:59:25;9.40;99.90
42339;DHT22;27993;45.392;10.918;2023-02-24T09:02:18;9.50;99.90
42339;DHT22;27993;45.392;10.918;2023-02-24T09:04:56;9.60;99.90
42339;DHT22;27993;45.392;10.918;2023-02-24T09:07:30;9.60;99.90
42339;DHT22;27993;45.392;10.918;2023-02-24T09:10:08;9.70;99.90
42339;DHT22;27993;45.392;10.918;2023-02-24T09:12:40;9.70;99.90
42339;DHT22;27993;45.392;10.918;2023-02-24T09:15:12;9.80;99.90
42339;DHT22;27993;45.392;10.918;2023-02-24T09:17:45;9.80;99.90
42339;DHT22;27993;45.392;10.918;2023-02-24T09:20:21;9.80;99.90
42339;DHT22;27993;45.392;10.918;2023-02-24T09:22:58;9.80;99.90
42339;DHT22;27993;45.392;10.918;2023-02-24T09:25:38;9.90;99.90
42339;DHT22;27993;45.392;10.918;2023-02-24T09:28:19;9.90;99.90
42339;DHT22;27993;45.392;10.918;2023-02-24T09:30:55;9.90;99.90
42339;DHT22;27993;45.392;10.918;2023-02-24T09:33:34;9.90;99.90
42339;DHT22;27993;45.392;10.918;2023-02-24T09:36:13;9.90;99.90
42339;DHT22;27993;45.392;10.918;2023-02-24T09:38:58;9.90;99.90
42339;DHT22;27993;45.392;10.918;2023-02-24T09:41:47;10.00;99.90
42339;DHT22;27993;45.392;10.918;2023-02-24T09:44:49;10.10;99.90
42339;DHT22;27993;45.392;10.918;2023-02-24T09:47:27;10.10;99.90
42339;DHT22;27993;45.392;10.918;2023-02-24T09:50:27;10.20;99.90
42339;DHT22;27993;45.392;10.918;2023-02-24T09:53:16;10.30;99.90
42339;DHT22;27993;45.392;10.918;2023-02-24T09:55:51;10.40;99.90
42339;DHT22;27993;45.392;10.918;2023-02-24T09:58:48;10.40;99.90
42339;DHT22;27993;45.392;10.918;2023-02-24T10:01:42;10.50;99.90
42339;DHT22;27993;45.392;10.918;2023-02-24T10:07:30;10.80;99.90
42339;DHT22;27993;45.392;10.918;2023-02-24T10:10:16;10.90;99.90
42339;DHT22;27993;45.392;10.918;2023-02-24T10:13:18;11.40;99.90
42339;DHT22;27993;45.392;10.918;2023-02-24T10:16:01;11.30;99.90
42339;DHT22;27993;45.392;10.918;2023-02-24T10:18:46;11.50;99.90
42339;DHT22;27993;45.392;10.918;2023-02-24T10:22:04;11.70;99.90
42339;DHT22;27993;45.392;10.918;2023-02-24T10:24:44;12.20;99.90
42339;DHT22;27993;45.392;10.918;2023-02-24T10:27:27;12.60;99.90
42339;DHT22;27993;45.392;10.918;2023-02-24T10:30:04;12.90;99.90
42339;DHT22;27993;45.392;10.918;2023-02-24T10:32:54;12.90;99.90
42339;DHT22;27993;45.392;10.918;2023-02-24T10:35:29;12.60;99.90
42339;DHT22;27993;45.392;10.918;2023-02-24T10:38:03;12.60;99.90
42339;DHT22;27993;45.392;10.918;2023-02-24T10:40:51;12.60;99.90
42339;DHT22;27993;45.392;10.918;2023-02-24T10:43:26;12.50;99.90
42339;DHT22;27993;45.392;10.918;2023-02-24T10:46:00;12.60;99.90
42339;DHT22;27993;45.392;10.918;2023-02-24T10:48:35;12.60;99.90
42339;DHT22;27993;45.392;10.918;2023-02-24T10:51:15;12.70;99.90
42339;DHT22;27993;45.392;10.918;2023-02-24T10:53:49;12.80;99.90
42339;DHT22;27993;45.392;10.918;2023-02-24T10:56:41;12.90;99.90
42339;DHT22;27993;45.392;10.918;2023-02-24T10:59:17;13.80;99.90
42339;DHT22;27993;45.392;10.918;2023-02-24T11:02:18;14.70;99.90
42339;DHT22;27993;45.392;10.918;2023-02-24T11:05:15;15.20;99.90
42339;DHT22;27993;45.392;10.918;2023-02-24T11:08:12;15.10;99.90
42339;DHT22;27993;45.392;10.918;2023-02-24T11:11:11;14.40;99.90
42339;DHT22;27993;45.392;10.918;2023-02-24T11:13:53;14.50;99.90
42339;DHT22;27993;45.392;10.918;2023-02-24T11:16:54;14.80;99.90
42339;DHT22;27993;45.392;10.918;2023-02-24T11:19:54;15.50;99.90
42339;DHT22;27993;45.392;10.918;2023-02-24T11:22:31;15.00;99.90
42339;DHT22;27993;45.392;10.918;2023-02-24T11:25:23;14.80;99.90
42339;DHT22;27993;45.392;10.918;2023-02-24T11:27:55;14.80;99.90
42339;DHT22;27993;45.392;10.918;2023-02-24T11:36:20;14.50;99.90
42339;DHT22;27993;45.392;10.918;2023-02-24T11:41:43;15.00;99.90
42339;DHT22;27993;45.392;10.918;2023-02-24T11:44:45;15.30;99.90
42339;DHT22;27993;45.392;10.918;2023-02-24T11:47:26;15.50;99.90
42339;DHT22;27993;45.392;10.918;2023-02-24T11:50:31;15.50;99.90
42339;DHT22;27993;45.392;10.918;2023-02-24T11:53:23;15.40;99.90
42339;DHT22;27993;45.392;10.918;2023-02-24T12:01:34;15.10;99.90
42339;DHT22;27993;45.392;10.918;2023-02-24T12:04:16;15.70;99.90
42339;DHT22;27993;45.392;10.918;2023-02-24T12:09:49;15.50;99.90
42339;DHT22;27993;45.392;10.918;2023-02-24T12:12:42;15.20;99.90
42339;DHT22;27993;45.392;10.918;2023-02-24T12:15:24;15.20;99.90
42339;DHT22;27993;45.392;10.918;2023-02-24T12:23:44;15.30;99.90
42339;DHT22;27993;45.392;10.918;2023-02-24T12:32:19;15.50;99.90
42339;DHT22;27993;45.392;10.918;2023-02-24T12:35:01;15.80;99.90
42339;DHT22;27993;45.392;10.918;2023-02-24T12:38:02;15.80;99.90
42339;DHT22;27993;45.392;10.918;2023-02-24T12:51:41;15.50;99.90
42339;DHT22;27993;45.392;10.918;2023-02-24T12:55:10;15.50;99.90
42339;DHT22;27993;45.392;10.918;2023-02-24T13:06:00;15.50;99.90
42339;DHT22;27993;45.392;10.918;2023-02-24T13:11:42;15.40;99.90
42339;DHT22;27993;45.392;10.918;2023-02-24T13:14:35;15.30;99.90
42339;DHT22;27993;45.392;10.918;2023-02-24T13:19:41;15.30;99.90
42339;DHT22;27993;45.392;10.918;2023-02-24T13:24:58;15.40;99.90
42339;DHT22;27993;45.392;10.918;2023-02-24T13:27:35;15.40;99.90
42339;DHT22;27993;45.392;10.918;2023-02-24T13:32:44;15.60;99.90
42339;DHT22;27993;45.392;10.918;2023-02-24T13:37:46;15.60;99.90
42339;DHT22;27993;45.392;10.918;2023-02-24T13:45:32;15.40;99.90
42339;DHT22;27993;45.392;10.918;2023-02-24T13:56:56;15.40;99.90
42339;DHT22;27993;45.392;10.918;2023-02-24T14:02:42;15.40;99.90
42339;DHT22;27993;45.392;10.918;2023-02-24T14:07:56;15.40;99.90
42339;DHT22;27993;45.392;10.918;2023-02-24T14:10:30;15.40;99.90
42339;DHT22;27993;45.392;10.918;2023-02-24T14:13:15;15.30;99.90
42339;DHT22;27993;45.392;10.918;2023-02-24T14:15:46;15.20;99.90
42339;DHT22;27993;45.392;10.918;2023-02-24T14:18:20;15.20;99.90
42339;DHT22;27993;45.392;10.918;2023-02-24T14:20:53;15.30;99.90
42339;DHT22;27993;45.392;10.918;2023-02-24T14:23:28;15.20;99.90
42339;DHT22;27993;45.392;10.918;2023-02-24T14:26:07;15.20;99.90
42339;DHT22;27993;45.392;10.918;2023-02-24T14:28:41;15.20;99.90
42339;DHT22;27993;45.392;10.918;2023-02-24T14:31:14;15.30;99.90
42339;DHT22;27993;45.392;10.918;2023-02-24T14:33:45;15.20;99.90
42339;DHT22;27993;45.392;10.918;2023-02-24T14:36:19;15.10;99.90
42339;DHT22;27993;45.392;10.918;2023-02-24T14:39:25;15.20;99.90
42339;DHT22;27993;45.392;10.918;2023-02-24T14:44:49;15.20;99.90
42339;DHT22;27993;45.392;10.918;2023-02-24T14:47:22;15.10;99.90
42339;DHT22;27993;45.392;10.918;2023-02-24T14:50:02;15.00;99.90
42339;DHT22;27993;45.392;10.918;2023-02-24T14:58:15;15.00;99.90
42339;DHT22;27993;45.392;10.918;2023-02-24T15:03:33;14.90;99.90
42339;DHT22;27993;45.392;10.918;2023-02-24T15:06:11;14.90;99.90
42339;DHT22;27993;45.392;10.918;2023-02-24T15:08:48;14.80;99.90
42339;DHT22;27993;45.392;10.918;2023-02-24T15:11:21;14.80;99.90
42339;DHT22;27993;45.392;10.918;2023-02-24T15:13:56;14.90;99.90
42339;DHT22;27993;45.392;10.918;2023-02-24T15:16:28;14.80;99.90
42339;DHT22;27993;45.392;10.918;2023-02-24T15:19:02;14.70;99.90
42339;DHT22;27993;45.392;10.918;2023-02-24T15:21:39;14.70;99.90
42339;DHT22;27993;45.392;10.918;2023-02-24T15:26:52;14.70;99.90
42339;DHT22;27993;45.392;10.918;2023-02-24T15:29:28;14.70;99.90
42339;DHT22;27993;45.392;10.918;2023-02-24T15:32:02;14.60;99.90
42339;DHT22;27993;45.392;10.918;2023-02-24T15:34:36;14.60;99.90
42339;DHT22;27993;45.392;10.918;2023-02-24T15:37:22;14.70;99.90
42339;DHT22;27993;45.392;10.918;2023-02-24T15:40:06;14.60;99.90
42339;DHT22;27993;45.392;10.918;2023-02-24T15:42:37;14.50;99.90
42339;DHT22;27993;45.392;10.918;2023-02-24T15:45:40;14.50;99.90
42339;DHT22;27993;45.392;10.918;2023-02-24T15:48:21;14.50;99.90
42339;DHT22;27993;45.392;10.918;2023-02-24T15:50:53;14.50;99.90
42339;DHT22;27993;45.392;10.918;2023-02-24T15:53:23;14.50;99.90
42339;DHT22;27993;45.392;10.918;2023-02-24T15:55:54;14.40;99.90
42339;DHT22;27993;45.392;10.918;2023-02-24T15:58:25;14.40;99.90
42339;DHT22;27993;45.392;10.918;2023-02-24T16:00:56;14.40;99.90
42339;DHT22;27993;45.392;10.918;2023-02-24T16:03:26;14.40;99.90
42339;DHT22;27993;45.392;10.918;2023-02-24T16:05:57;14.40;99.90
42339;DHT22;27993;45.392;10.918;2023-02-24T16:08:27;14.40;99.90
42339;DHT22;27993;45.392;10.918;2023-02-24T16:10:59;14.40;99.90
42339;DHT22;27993;45.392;10.918;2023-02-24T16:13:29;14.30;99.90
42339;DHT22;27993;45.392;10.918;2023-02-24T16:16:00;14.30;99.90
42339;DHT22;27993;45.392;10.918;2023-02-24T16:18:31;14.30;99.90
42339;DHT22;27993;45.392;10.918;2023-02-24T16:21:02;14.20;99.90
42339;DHT22;27993;45.392;10.918;2023-02-24T16:23:33;14.20;99.90
42339;DHT22;27993;45.392;10.918;2023-02-24T16:26:19;14.10;99.90
42339;DHT22;27993;45.392;10.918;2023-02-24T16:28:56;14.00;99.90
42339;DHT22;27993;45.392;10.918;2023-02-24T16:31:27;14.00;99.90
42339;DHT22;27993;45.392;10.918;2023-02-24T16:33:57;13.90;99.90
42339;DHT22;27993;45.392;10.918;2023-02-24T16:36:28;13.90;99.90
42339;DHT22;27993;45.392;10.918;2023-02-24T16:38:58;13.80;99.90
42339;DHT22;27993;45.392;10.918;2023-02-24T16:41:30;13.80;99.90
42339;DHT22;27993;45.392;10.918;2023-02-24T16:44:01;13.80;99.90
42339;DHT22;27993;45.392;10.918;2023-02-24T16:46:34;13.80;99.90
42339;DHT22;27993;45.392;10.918;2023-02-24T16:49:08;13.80;99.90
42339;DHT22;27993;45.392;10.918;2023-02-24T16:51:41;13.70;99.90
42339;DHT22;27993;45.392;10.918;2023-02-24T16:54:12;13.60;99.90
42339;DHT22;27993;45.392;10.918;2023-02-24T16:56:42;13.60;99.90
42339;DHT22;27993;45.392;10.918;2023-02-24T16:59:14;13.60;99.90
42339;DHT22;27993;45.392;10.918;2023-02-24T17:01:45;13.50;99.90
42339;DHT22;27993;45.392;10.918;2023-02-24T17:04:15;13.50;99.90
42339;DHT22;27993;45.392;10.918;2023-02-24T17:06:46;13.50;99.90
42339;DHT22;27993;45.392;10.918;2023-02-24T17:09:17;13.50;99.90
42339;DHT22;27993;45.392;10.918;2023-02-24T17:11:48;13.50;99.90
42339;DHT22;27993;45.392;10.918;2023-02-24T17:14:19;13.40;99.90
42339;DHT22;27993;45.392;10.918;2023-02-24T17:16:50;13.40;99.90
42339;DHT22;27993;45.392;10.918;2023-02-24T17:19:21;13.30;99.90
42339;DHT22;27993;45.392;10.918;2023-02-24T17:21:51;13.30;99.90
42339;DHT22;27993;45.392;10.918;2023-02-24T17:24:22;13.30;99.90
42339;DHT22;27993;45.392;10.918;2023-02-24T17:26:54;13.20;99.90
42339;DHT22;27993;45.392;10.918;2023-02-24T17:29:28;13.20;99.90
42339;DHT22;27993;45.392;10.918;2023-02-24T17:31:58;13.20;99.90
42339;DHT22;27993;45.392;10.918;2023-02-24T17:34:29;13.20;99.90
42339;DHT22;27993;45.392;10.918;2023-02-24T17:36:59;13.20;99.90
42339;DHT22;27993;45.392;10.918;2023-02-24T17:39:30;13.20;99.90
42339;DHT22;27993;45.392;10.918;2023-02-24T17:42:00;13.10;99.90
42339;DHT22;27993;45.392;10.918;2023-02-24T17:44:31;13.10;99.90
42339;DHT22;27993;45.392;10.918;2023-02-24T17:47:02;13.10;99.90
42339;DHT22;27993;45.392;10.918;2023-02-24T17:49:33;13.10;99.90
42339;DHT22;27993;45.392;10.918;2023-02-24T17:52:03;13.10;99.90
42339;DHT22;27993;45.392;10.918;2023-02-24T17:54:34;13.10;99.90
42339;DHT22;27993;45.392;10.918;2023-02-24T17:57:04;13.00;99.90
42339;DHT22;27993;45.392;10.918;2023-02-24T17:59:36;13.00;99.90
42339;DHT22;27993;45.392;10.918;2023-02-24T18:02:08;13.00;99.90
42339;DHT22;27993;45.392;10.918;2023-02-24T18:04:39;13.00;99.90
42339;DHT22;27993;45.392;10.918;2023-02-24T18:07:11;13.00;99.90
42339;DHT22;27993;45.392;10.918;2023-02-24T18:09:41;13.00;99.90
42339;DHT22;27993;45.392;10.918;2023-02-24T18:12:12;13.00;99.90
42339;DHT22;27993;45.392;10.918;2023-02-24T18:14:43;13.00;99.90
42339;DHT22;27993;45.392;10.918;2023-02-24T18:17:14;12.90;99.90
42339;DHT22;27993;45.392;10.918;2023-02-24T18:19:45;12.90;99.90
42339;DHT22;27993;45.392;10.918;2023-02-24T18:22:15;12.90;99.90
42339;DHT22;27993;45.392;10.918;2023-02-24T18:24:46;12.90;99.90
42339;DHT22;27993;45.392;10.918;2023-02-24T18:27:17;12.90;99.90
42339;DHT22;27993;45.392;10.918;2023-02-24T18:29:47;12.90;99.90
42339;DHT22;27993;45.392;10.918;2023-02-24T18:32:18;12.90;99.90
42339;DHT22;27993;45.392;10.918;2023-02-24T18:34:49;12.90;99.90